sensor_id;sensor_type;location;lat;lon;timestamp;temperature;humidity
49222;DHT22;35047;37.588;-122.048;2023-02-15T00:00:08;15.80;62.00
49222;DHT22;35047;37.588;-122.048;2023-02-15T00:02:39;15.80;62.20
49222;DHT22;35047;37.588;-122.048;2023-02-15T00:05:06;15.60;62.20
49222;DHT22;35047;37.588;-122.048;2023-02-15T00:07:35;15.50;62.00
49222;DHT22;35047;37.588;-122.048;2023-02-15T00:10:02;15.50;62.50
49222;DHT22;35047;37.588;-122.048;2023-02-15T00:12:29;15.30;61.90
49222;DHT22;35047;37.588;-122.048;2023-02-15T00:14:56;15.20;62.30
49222;DHT22;35047;37.588;-122.048;2023-02-15T00:17:23;15.20;62.90
49222;DHT22;35047;37.588;-122.048;2023-02-15T00:19:50;15.20;63.00
49222;DHT22;35047;37.588;-122.048;2023-02-15T00:22:17;15.10;63.50
49222;DHT22;35047;37.588;-122.048;2023-02-15T00:24:45;15.20;63.20
49222;DHT22;35047;37.588;-122.048;2023-02-15T00:27:13;15.10;63.40
49222;DHT22;35047;37.588;-122.048;2023-02-15T00:29:39;15.00;63.00
49222;DHT22;35047;37.588;-122.048;2023-02-15T00:32:06;15.00;62.60
49222;DHT22;35047;37.588;-122.048;2023-02-15T00:34:34;15.10;62.70
49222;DHT22;35047;37.588;-122.048;2023-02-15T00:37:00;15.10;63.20
49222;DHT22;35047;37.588;-122.048;2023-02-15T00:39:27;15.00;62.40
49222;DHT22;35047;37.588;-122.048;2023-02-15T00:41:54;14.90;63.30
49222;DHT22;35047;37.588;-122.048;2023-02-15T00:44:22;14.80;64.10
49222;DHT22;35047;37.588;-122.048;2023-02-15T00:46:49;14.90;64.10
49222;DHT22;35047;37.588;-122.048;2023-02-15T00:49:16;14.90;64.00
49222;DHT22;35047;37.588;-122.048;2023-02-15T00:51:44;14.90;64.00
49222;DHT22;35047;37.588;-122.048;2023-02-15T00:54:11;14.90;64.30
49222;DHT22;35047;37.588;-122.048;2023-02-15T00:56:38;14.90;64.40
49222;DHT22;35047;37.588;-122.048;2023-02-15T00:59:05;15.00;64.00
49222;DHT22;35047;37.588;-122.048;2023-02-15T01:01:32;15.00;63.60
49222;DHT22;35047;37.588;-122.048;2023-02-15T01:03:59;15.00;64.00
49222;DHT22;35047;37.588;-122.048;2023-02-15T01:06:26;15.00;64.10
49222;DHT22;35047;37.588;-122.048;2023-02-15T01:08:53;15.00;63.90
49222;DHT22;35047;37.588;-122.048;2023-02-15T01:11:21;15.10;63.30
49222;DHT22;35047;37.588;-122.048;2023-02-15T01:13:51;15.10;63.40
49222;DHT22;35047;37.588;-122.048;2023-02-15T01:16:19;15.10;63.20
49222;DHT22;35047;37.588;-122.048;2023-02-15T01:18:47;15.20;63.60
49222;DHT22;35047;37.588;-122.048;2023-02-15T01:21:18;15.20;63.50
49222;DHT22;35047;37.588;-122.048;2023-02-15T01:23:46;15.30;62.10
49222;DHT22;35047;37.588;-122.048;2023-02-15T01:26:14;15.30;61.60
49222;DHT22;35047;37.588;-122.048;2023-02-15T01:28:41;15.40;62.00
49222;DHT22;35047;37.588;-122.048;2023-02-15T01:31:16;15.40;60.90
49222;DHT22;35047;37.588;-122.048;2023-02-15T01:33:43;15.50;60.60
49222;DHT22;35047;37.588;-122.048;2023-02-15T01:36:10;15.60;60.30
49222;DHT22;35047;37.588;-122.048;2023-02-15T01:38:38;15.60;59.80
49222;DHT22;35047;37.588;-122.048;2023-02-15T01:41:05;15.70;59.90
49222;DHT22;35047;37.588;-122.048;2023-02-15T01:44:00;15.80;59.90
49222;DHT22;35047;37.588;-122.048;2023-02-15T01:49:15;15.90;56.70
49222;DHT22;35047;37.588;-122.048;2023-02-15T01:51:45;15.90;57.50
49222;DHT22;35047;37.588;-122.048;2023-02-15T01:54:21;16.00;57.50
49222;DHT22;35047;37.588;-122.048;2023-02-15T01:56:51;16.10;57.10
49222;DHT22;35047;37.588;-122.048;2023-02-15T01:59:22;16.10;56.90
49222;DHT22;35047;37.588;-122.048;2023-02-15T02:01:53;16.10;56.50
49222;DHT22;35047;37.588;-122.048;2023-02-15T02:04:56;16.20;56.20
49222;DHT22;35047;37.588;-122.048;2023-02-15T02:07:22;16.20;56.00
49222;DHT22;35047;37.588;-122.048;2023-02-15T02:09:50;16.20;57.10
49222;DHT22;35047;37.588;-122.048;2023-02-15T02:12:18;16.30;57.60
49222;DHT22;35047;37.588;-122.048;2023-02-15T02:14:47;16.30;57.80
49222;DHT22;35047;37.588;-122.048;2023-02-15T02:23:16;16.30;58.40
49222;DHT22;35047;37.588;-122.048;2023-02-15T02:26:15;16.30;58.30
49222;DHT22;35047;37.588;-122.048;2023-02-15T02:29:13;16.20;58.50
49222;DHT22;35047;37.588;-122.048;2023-02-15T02:34:51;16.10;58.00
49222;DHT22;35047;37.588;-122.048;2023-02-15T02:37:24;16.00;57.70
49222;DHT22;35047;37.588;-122.048;2023-02-15T02:42:49;15.90;56.70
49222;DHT22;35047;37.588;-122.048;2023-02-15T02:45:28;15.80;57.20
49222;DHT22;35047;37.588;-122.048;2023-02-15T02:48:10;15.70;56.20
49222;DHT22;35047;37.588;-122.048;2023-02-15T02:50:39;15.60;56.10
49222;DHT22;35047;37.588;-122.048;2023-02-15T02:53:08;15.60;56.20
49222;DHT22;35047;37.588;-122.048;2023-02-15T02:55:55;15.60;56.40
49222;DHT22;35047;37.588;-122.048;2023-02-15T02:58:36;15.50;56.10
49222;DHT22;35047;37.588;-122.048;2023-02-15T03:01:42;15.40;56.50
49222;DHT22;35047;37.588;-122.048;2023-02-15T03:04:05;15.40;56.70
49222;DHT22;35047;37.588;-122.048;2023-02-15T03:06:37;15.30;57.10
49222;DHT22;35047;37.588;-122.048;2023-02-15T03:09:14;15.30;57.50
49222;DHT22;35047;37.588;-122.048;2023-02-15T03:11:43;15.30;57.90
49222;DHT22;35047;37.588;-122.048;2023-02-15T03:14:12;15.30;57.60
49222;DHT22;35047;37.588;-122.048;2023-02-15T03:16:42;15.20;58.20
49222;DHT22;35047;37.588;-122.048;2023-02-15T03:19:19;15.20;58.30
49222;DHT22;35047;37.588;-122.048;2023-02-15T03:21:57;15.30;58.40
49222;DHT22;35047;37.588;-122.048;2023-02-15T03:27:22;15.20;58.30
49222;DHT22;35047;37.588;-122.048;2023-02-15T03:29:55;15.20;58.50
49222;DHT22;35047;37.588;-122.048;2023-02-15T03:32:24;15.30;58.70
49222;DHT22;35047;37.588;-122.048;2023-02-15T03:34:52;15.20;58.90
49222;DHT22;35047;37.588;-122.048;2023-02-15T03:43:02;15.20;58.80
49222;DHT22;35047;37.588;-122.048;2023-02-15T03:45:34;15.10;58.30
49222;DHT22;35047;37.588;-122.048;2023-02-15T03:48:05;15.20;58.10
49222;DHT22;35047;37.588;-122.048;2023-02-15T03:50:36;15.20;57.30
49222;DHT22;35047;37.588;-122.048;2023-02-15T03:53:23;15.10;57.10
49222;DHT22;35047;37.588;-122.048;2023-02-15T03:55:54;15.10;57.00
49222;DHT22;35047;37.588;-122.048;2023-02-15T03:58:22;15.00;56.70
49222;DHT22;35047;37.588;-122.048;2023-02-15T04:01:45;15.00;56.70
49222;DHT22;35047;37.588;-122.048;2023-02-15T04:04:27;15.00;56.60
49222;DHT22;35047;37.588;-122.048;2023-02-15T04:06:55;14.90;56.60
49222;DHT22;35047;37.588;-122.048;2023-02-15T04:09:22;14.90;56.90
49222;DHT22;35047;37.588;-122.048;2023-02-15T04:12:08;14.90;57.20
49222;DHT22;35047;37.588;-122.048;2023-02-15T04:14:35;14.90;57.50
49222;DHT22;35047;37.588;-122.048;2023-02-15T04:17:20;14.90;57.50
49222;DHT22;35047;37.588;-122.048;2023-02-15T04:19:47;14.90;57.60
49222;DHT22;35047;37.588;-122.048;2023-02-15T04:22:33;14.90;57.80
49222;DHT22;35047;37.588;-122.048;2023-02-15T04:25:18;14.90;57.90
49222;DHT22;35047;37.588;-122.048;2023-02-15T04:27:49;14.90;58.00
49222;DHT22;35047;37.588;-122.048;2023-02-15T04:30:19;14.80;58.10
49222;DHT22;35047;37.588;-122.048;2023-02-15T04:32:47;14.80;57.70
49222;DHT22;35047;37.588;-122.048;2023-02-15T04:35:14;14.80;58.00
49222;DHT22;35047;37.588;-122.048;2023-02-15T04:37:43;14.80;58.20
49222;DHT22;35047;37.588;-122.048;2023-02-15T04:40:13;14.80;58.20
49222;DHT22;35047;37.588;-122.048;2023-02-15T04:42:41;14.80;58.40
49222;DHT22;35047;37.588;-122.048;2023-02-15T04:45:09;14.70;58.30
49222;DHT22;35047;37.588;-122.048;2023-02-15T04:47:36;14.80;58.50
49222;DHT22;35047;37.588;-122.048;2023-02-15T04:50:03;14.70;58.20
49222;DHT22;35047;37.588;-122.048;2023-02-15T04:52:30;14.70;58.20
49222;DHT22;35047;37.588;-122.048;2023-02-15T04:54:56;14.70;57.90
49222;DHT22;35047;37.588;-122.048;2023-02-15T04:57:23;14.60;58.50
49222;DHT22;35047;37.588;-122.048;2023-02-15T04:59:50;14.70;58.40
49222;DHT22;35047;37.588;-122.048;2023-02-15T05:02:17;14.60;58.60
49222;DHT22;35047;37.588;-122.048;2023-02-15T05:04:44;14.60;58.40
49222;DHT22;35047;37.588;-122.048;2023-02-15T05:07:11;14.70;58.40
49222;DHT22;35047;37.588;-122.048;2023-02-15T05:09:38;14.60;58.20
49222;DHT22;35047;37.588;-122.048;2023-02-15T05:12:05;14.60;58.10
49222;DHT22;35047;37.588;-122.048;2023-02-15T05:14:32;14.90;57.90
49222;DHT22;35047;37.588;-122.048;2023-02-15T05:16:59;15.30;57.10
49222;DHT22;35047;37.588;-122.048;2023-02-15T05:19:29;15.60;55.90
49222;DHT22;35047;37.588;-122.048;2023-02-15T05:21:57;15.90;55.00
49222;DHT22;35047;37.588;-122.048;2023-02-15T05:24:23;16.00;54.40
49222;DHT22;35047;37.588;-122.048;2023-02-15T05:27:11;15.90;54.30
49222;DHT22;35047;37.588;-122.048;2023-02-15T05:29:56;15.80;54.50
49222;DHT22;35047;37.588;-122.048;2023-02-15T05:32:23;15.70;54.70
49222;DHT22;35047;37.588;-122.048;2023-02-15T05:34:50;15.60;54.50
49222;DHT22;35047;37.588;-122.048;2023-02-15T05:37:17;15.40;54.70
49222;DHT22;35047;37.588;-122.048;2023-02-15T05:39:43;15.30;54.80
49222;DHT22;35047;37.588;-122.048;2023-02-15T05:42:10;15.10;54.50
49222;DHT22;35047;37.588;-122.048;2023-02-15T05:44:36;15.00;54.50
49222;DHT22;35047;37.588;-122.048;2023-02-15T05:47:04;14.90;54.50
49222;DHT22;35047;37.588;-122.048;2023-02-15T05:49:33;14.80;54.10
49222;DHT22;35047;37.588;-122.048;2023-02-15T05:51:59;14.70;54.30
49222;DHT22;35047;37.588;-122.048;2023-02-15T05:54:27;14.60;53.80
49222;DHT22;35047;37.588;-122.048;2023-02-15T05:56:54;14.50;53.20
49222;DHT22;35047;37.588;-122.048;2023-02-15T05:59:22;14.60;53.40
49222;DHT22;35047;37.588;-122.048;2023-02-15T06:01:50;14.50;53.10
49222;DHT22;35047;37.588;-122.048;2023-02-15T06:04:16;14.50;52.90
49222;DHT22;35047;37.588;-122.048;2023-02-15T06:06:45;14.40;52.30
49222;DHT22;35047;37.588;-122.048;2023-02-15T06:09:12;14.30;52.50
49222;DHT22;35047;37.588;-122.048;2023-02-15T06:11:39;14.20;51.60
49222;DHT22;35047;37.588;-122.048;2023-02-15T06:14:05;14.20;51.40
49222;DHT22;35047;37.588;-122.048;2023-02-15T06:16:33;14.10;52.10
49222;DHT22;35047;37.588;-122.048;2023-02-15T06:19:00;14.10;52.00
49222;DHT22;35047;37.588;-122.048;2023-02-15T06:21:28;14.10;52.00
49222;DHT22;35047;37.588;-122.048;2023-02-15T06:23:55;14.00;52.20
49222;DHT22;35047;37.588;-122.048;2023-02-15T06:26:21;14.00;52.10
49222;DHT22;35047;37.588;-122.048;2023-02-15T06:28:49;13.90;51.70
49222;DHT22;35047;37.588;-122.048;2023-02-15T06:31:16;13.90;52.30
49222;DHT22;35047;37.588;-122.048;2023-02-15T06:33:43;13.90;52.20
49222;DHT22;35047;37.588;-122.048;2023-02-15T06:36:10;13.90;51.90
49222;DHT22;35047;37.588;-122.048;2023-02-15T06:38:38;13.80;52.20
49222;DHT22;35047;37.588;-122.048;2023-02-15T06:41:06;13.80;51.90
49222;DHT22;35047;37.588;-122.048;2023-02-15T06:43:33;13.80;52.30
49222;DHT22;35047;37.588;-122.048;2023-02-15T06:46:01;13.80;51.80
49222;DHT22;35047;37.588;-122.048;2023-02-15T06:48:27;13.70;51.50
49222;DHT22;35047;37.588;-122.048;2023-02-15T06:50:55;13.70;50.90
49222;DHT22;35047;37.588;-122.048;2023-02-15T06:53:22;13.70;50.70
49222;DHT22;35047;37.588;-122.048;2023-02-15T06:55:48;13.60;50.50
49222;DHT22;35047;37.588;-122.048;2023-02-15T06:58:15;13.60;50.80
49222;DHT22;35047;37.588;-122.048;2023-02-15T07:00:44;13.60;50.90
49222;DHT22;35047;37.588;-122.048;2023-02-15T07:03:13;13.60;51.30
49222;DHT22;35047;37.588;-122.048;2023-02-15T07:05:41;13.50;51.80
49222;DHT22;35047;37.588;-122.048;2023-02-15T07:08:07;13.50;52.10
49222;DHT22;35047;37.588;-122.048;2023-02-15T07:10:35;13.60;51.80
49222;DHT22;35047;37.588;-122.048;2023-02-15T07:13:02;13.50;52.00
49222;DHT22;35047;37.588;-122.048;2023-02-15T07:15:29;13.50;52.50
49222;DHT22;35047;37.588;-122.048;2023-02-15T07:17:57;13.50;52.50
49222;DHT22;35047;37.588;-122.048;2023-02-15T07:20:25;13.40;52.30
49222;DHT22;35047;37.588;-122.048;2023-02-15T07:22:52;13.40;52.60
49222;DHT22;35047;37.588;-122.048;2023-02-15T07:25:19;13.20;52.30
49222;DHT22;35047;37.588;-122.048;2023-02-15T07:27:47;13.20;51.10
49222;DHT22;35047;37.588;-122.048;2023-02-15T07:30:16;13.20;51.70
49222;DHT22;35047;37.588;-122.048;2023-02-15T07:32:44;13.00;51.40
49222;DHT22;35047;37.588;-122.048;2023-02-15T07:35:29;13.00;50.60
49222;DHT22;35047;37.588;-122.048;2023-02-15T07:37:56;13.00;50.50
49222;DHT22;35047;37.588;-122.048;2023-02-15T07:40:23;13.00;51.50
49222;DHT22;35047;37.588;-122.048;2023-02-15T07:42:50;12.90;49.10
49222;DHT22;35047;37.588;-122.048;2023-02-15T07:45:20;13.00;49.40
49222;DHT22;35047;37.588;-122.048;2023-02-15T07:47:47;13.00;49.70
49222;DHT22;35047;37.588;-122.048;2023-02-15T07:50:15;13.10;49.80
49222;DHT22;35047;37.588;-122.048;2023-02-15T07:52:41;13.10;49.10
49222;DHT22;35047;37.588;-122.048;2023-02-15T07:55:09;13.20;48.70
49222;DHT22;35047;37.588;-122.048;2023-02-15T07:57:44;13.10;47.80
49222;DHT22;35047;37.588;-122.048;2023-02-15T08:00:15;13.20;47.70
49222;DHT22;35047;37.588;-122.048;2023-02-15T08:02:52;13.10;48.00
49222;DHT22;35047;37.588;-122.048;2023-02-15T08:05:43;13.10;47.60
49222;DHT22;35047;37.588;-122.048;2023-02-15T08:08:12;13.10;47.40
49222;DHT22;35047;37.588;-122.048;2023-02-15T08:13:57;13.20;47.10
49222;DHT22;35047;37.588;-122.048;2023-02-15T08:16:27;13.20;47.40
49222;DHT22;35047;37.588;-122.048;2023-02-15T08:18:55;13.20;47.40
49222;DHT22;35047;37.588;-122.048;2023-02-15T08:21:26;13.20;47.20
49222;DHT22;35047;37.588;-122.048;2023-02-15T08:23:53;13.20;47.30
49222;DHT22;35047;37.588;-122.048;2023-02-15T08:26:20;13.20;48.20
49222;DHT22;35047;37.588;-122.048;2023-02-15T08:28:48;13.20;46.40
49222;DHT22;35047;37.588;-122.048;2023-02-15T08:31:15;13.10;46.40
49222;DHT22;35047;37.588;-122.048;2023-02-15T08:33:45;13.10;47.00
49222;DHT22;35047;37.588;-122.048;2023-02-15T08:36:15;13.10;47.00
49222;DHT22;35047;37.588;-122.048;2023-02-15T08:38:42;13.10;46.60
49222;DHT22;35047;37.588;-122.048;2023-02-15T08:41:24;13.10;46.20
49222;DHT22;35047;37.588;-122.048;2023-02-15T08:43:54;13.20;47.20
49222;DHT22;35047;37.588;-122.048;2023-02-15T08:46:22;13.10;46.50
49222;DHT22;35047;37.588;-122.048;2023-02-15T08:48:50;13.20;47.10
49222;DHT22;35047;37.588;-122.048;2023-02-15T08:51:21;13.20;46.90
49222;DHT22;35047;37.588;-122.048;2023-02-15T08:53:50;13.10;46.30
49222;DHT22;35047;37.588;-122.048;2023-02-15T08:56:20;13.10;46.50
49222;DHT22;35047;37.588;-122.048;2023-02-15T08:58:46;13.10;47.20
49222;DHT22;35047;37.588;-122.048;2023-02-15T09:01:16;13.10;46.90
49222;DHT22;35047;37.588;-122.048;2023-02-15T09:03:49;13.20;46.80
49222;DHT22;35047;37.588;-122.048;2023-02-15T09:06:20;13.00;47.60
49222;DHT22;35047;37.588;-122.048;2023-02-15T09:08:46;13.10;48.60
49222;DHT22;35047;37.588;-122.048;2023-02-15T09:11:17;13.10;49.30
49222;DHT22;35047;37.588;-122.048;2023-02-15T09:13:51;13.10;50.20
49222;DHT22;35047;37.588;-122.048;2023-02-15T09:16:20;13.20;50.50
49222;DHT22;35047;37.588;-122.048;2023-02-15T09:18:47;13.20;51.00
49222;DHT22;35047;37.588;-122.048;2023-02-15T09:21:21;13.20;51.00
49222;DHT22;35047;37.588;-122.048;2023-02-15T09:23:51;13.20;51.60
49222;DHT22;35047;37.588;-122.048;2023-02-15T09:26:20;13.10;52.20
49222;DHT22;35047;37.588;-122.048;2023-02-15T09:28:52;13.10;52.00
49222;DHT22;35047;37.588;-122.048;2023-02-15T09:31:24;13.00;52.00
49222;DHT22;35047;37.588;-122.048;2023-02-15T09:33:51;13.00;51.60
49222;DHT22;35047;37.588;-122.048;2023-02-15T09:36:25;12.90;51.50
49222;DHT22;35047;37.588;-122.048;2023-02-15T09:39:17;12.90;52.50
49222;DHT22;35047;37.588;-122.048;2023-02-15T09:45:03;12.90;53.00
49222;DHT22;35047;37.588;-122.048;2023-02-15T09:59:11;12.70;53.10
49222;DHT22;35047;37.588;-122.048;2023-02-15T10:04:24;12.60;53.10
49222;DHT22;35047;37.588;-122.048;2023-02-15T10:07:36;12.60;53.20
49222;DHT22;35047;37.588;-122.048;2023-02-15T10:21:07;12.10;53.70
49222;DHT22;35047;37.588;-122.048;2023-02-15T10:26:22;11.90;54.00
49222;DHT22;35047;37.588;-122.048;2023-02-15T10:28:57;11.60;49.70
49222;DHT22;35047;37.588;-122.048;2023-02-15T10:44:45;11.80;50.70
49222;DHT22;35047;37.588;-122.048;2023-02-15T10:47:41;11.80;49.80
49222;DHT22;35047;37.588;-122.048;2023-02-15T10:56:03;12.00;49.40
49222;DHT22;35047;37.588;-122.048;2023-02-15T11:01:41;12.20;49.00
49222;DHT22;35047;37.588;-122.048;2023-02-15T11:04:30;12.30;47.00
49222;DHT22;35047;37.588;-122.048;2023-02-15T11:07:04;12.20;46.50
49222;DHT22;35047;37.588;-122.048;2023-02-15T11:09:48;12.30;47.90
49222;DHT22;35047;37.588;-122.048;2023-02-15T11:12:18;12.40;47.20
49222;DHT22;35047;37.588;-122.048;2023-02-15T11:17:43;12.50;45.90
49222;DHT22;35047;37.588;-122.048;2023-02-15T11:20:30;12.50;46.40
49222;DHT22;35047;37.588;-122.048;2023-02-15T11:22:57;12.40;44.90
49222;DHT22;35047;37.588;-122.048;2023-02-15T11:25:32;12.40;46.50
49222;DHT22;35047;37.588;-122.048;2023-02-15T11:28:03;12.50;46.10
49222;DHT22;35047;37.588;-122.048;2023-02-15T11:30:46;12.50;46.20
49222;DHT22;35047;37.588;-122.048;2023-02-15T11:33:20;12.50;46.80
49222;DHT22;35047;37.588;-122.048;2023-02-15T11:36:12;12.50;46.90
49222;DHT22;35047;37.588;-122.048;2023-02-15T11:38:43;12.70;46.50
49222;DHT22;35047;37.588;-122.048;2023-02-15T11:41:19;12.60;47.50
49222;DHT22;35047;37.588;-122.048;2023-02-15T11:44:06;12.70;46.80
49222;DHT22;35047;37.588;-122.048;2023-02-15T11:46:37;12.70;46.30
49222;DHT22;35047;37.588;-122.048;2023-02-15T11:49:30;12.80;46.90
49222;DHT22;35047;37.588;-122.048;2023-02-15T11:51:56;12.50;44.00
49222;DHT22;35047;37.588;-122.048;2023-02-15T11:54:30;12.40;47.40
49222;DHT22;35047;37.588;-122.048;2023-02-15T11:59:42;12.00;44.20
49222;DHT22;35047;37.588;-122.048;2023-02-15T12:02:17;12.00;47.30
49222;DHT22;35047;37.588;-122.048;2023-02-15T12:04:58;12.00;45.50
49222;DHT22;35047;37.588;-122.048;2023-02-15T12:07:37;11.70;44.80
49222;DHT22;35047;37.588;-122.048;2023-02-15T12:10:23;12.20;47.70
49222;DHT22;35047;37.588;-122.048;2023-02-15T12:13:11;12.40;48.50
49222;DHT22;35047;37.588;-122.048;2023-02-15T12:15:43;12.50;48.50
49222;DHT22;35047;37.588;-122.048;2023-02-15T12:18:40;12.60;48.50
49222;DHT22;35047;37.588;-122.048;2023-02-15T12:21:10;12.60;48.40
49222;DHT22;35047;37.588;-122.048;2023-02-15T12:23:50;12.60;48.50
49222;DHT22;35047;37.588;-122.048;2023-02-15T12:26:44;12.70;49.00
49222;DHT22;35047;37.588;-122.048;2023-02-15T12:29:16;12.60;48.60
49222;DHT22;35047;37.588;-122.048;2023-02-15T12:31:49;12.60;47.90
49222;DHT22;35047;37.588;-122.048;2023-02-15T12:34:26;12.50;47.60
49222;DHT22;35047;37.588;-122.048;2023-02-15T12:37:00;12.60;46.60
49222;DHT22;35047;37.588;-122.048;2023-02-15T12:39:32;12.60;47.40
49222;DHT22;35047;37.588;-122.048;2023-02-15T12:42:04;12.60;48.40
49222;DHT22;35047;37.588;-122.048;2023-02-15T12:44:33;12.60;48.90
49222;DHT22;35047;37.588;-122.048;2023-02-15T12:47:17;12.60;48.40
49222;DHT22;35047;37.588;-122.048;2023-02-15T12:49:45;12.50;46.40
49222;DHT22;35047;37.588;-122.048;2023-02-15T12:52:29;12.50;47.90
49222;DHT22;35047;37.588;-122.048;2023-02-15T12:55:26;12.50;48.70
49222;DHT22;35047;37.588;-122.048;2023-02-15T12:58:19;12.50;46.60
49222;DHT22;35047;37.588;-122.048;2023-02-15T13:00:46;12.50;47.30
49222;DHT22;35047;37.588;-122.048;2023-02-15T13:03:21;12.40;47.90
49222;DHT22;35047;37.588;-122.048;2023-02-15T13:05:55;12.40;47.20
49222;DHT22;35047;37.588;-122.048;2023-02-15T13:08:35;12.40;46.50
49222;DHT22;35047;37.588;-122.048;2023-02-15T13:11:10;12.40;46.60
49222;DHT22;35047;37.588;-122.048;2023-02-15T13:13:54;12.40;46.30
49222;DHT22;35047;37.588;-122.048;2023-02-15T13:16:40;12.40;45.50
49222;DHT22;35047;37.588;-122.048;2023-02-15T13:19:22;12.40;46.60
49222;DHT22;35047;37.588;-122.048;2023-02-15T13:21:53;12.40;45.10
49222;DHT22;35047;37.588;-122.048;2023-02-15T13:24:29;12.40;46.90
49222;DHT22;35047;37.588;-122.048;2023-02-15T13:26:59;12.40;47.40
49222;DHT22;35047;37.588;-122.048;2023-02-15T13:29:29;12.40;48.20
49222;DHT22;35047;37.588;-122.048;2023-02-15T13:32:01;12.40;48.60
49222;DHT22;35047;37.588;-122.048;2023-02-15T13:34:39;12.40;48.40
49222;DHT22;35047;37.588;-122.048;2023-02-15T13:40:13;12.50;50.00
49222;DHT22;35047;37.588;-122.048;2023-02-15T13:46:08;12.40;49.90
49222;DHT22;35047;37.588;-122.048;2023-02-15T13:51:22;12.40;49.70
49222;DHT22;35047;37.588;-122.048;2023-02-15T13:54:02;12.30;49.50
49222;DHT22;35047;37.588;-122.048;2023-02-15T14:08:01;12.10;50.60
49222;DHT22;35047;37.588;-122.048;2023-02-15T14:19:05;12.10;49.60
49222;DHT22;35047;37.588;-122.048;2023-02-15T14:24:43;12.00;50.60
49222;DHT22;35047;37.588;-122.048;2023-02-15T14:30:18;11.90;50.90
49222;DHT22;35047;37.588;-122.048;2023-02-15T14:32:49;11.90;51.10
49222;DHT22;35047;37.588;-122.048;2023-02-15T14:35:21;11.60;52.80
49222;DHT22;35047;37.588;-122.048;2023-02-15T14:46:41;11.70;51.70
49222;DHT22;35047;37.588;-122.048;2023-02-15T14:49:19;11.60;52.00
49222;DHT22;35047;37.588;-122.048;2023-02-15T14:59:54;11.30;53.10
49222;DHT22;35047;37.588;-122.048;2023-02-15T15:05:32;11.30;53.20
49222;DHT22;35047;37.588;-122.048;2023-02-15T15:08:01;11.20;53.60
49222;DHT22;35047;37.588;-122.048;2023-02-15T15:10:42;11.20;54.00
49222;DHT22;35047;37.588;-122.048;2023-02-15T15:19:09;11.10;54.00
49222;DHT22;35047;37.588;-122.048;2023-02-15T15:33:00;11.00;54.10
49222;DHT22;35047;37.588;-122.048;2023-02-15T15:36:16;11.00;54.80
49222;DHT22;35047;37.588;-122.048;2023-02-15T15:39:12;11.10;54.90
49222;DHT22;35047;37.588;-122.048;2023-02-15T15:47:33;11.30;50.50
49222;DHT22;35047;37.588;-122.048;2023-02-15T15:50:01;11.40;50.70
49222;DHT22;35047;37.588;-122.048;2023-02-15T15:52:32;11.50;49.50
49222;DHT22;35047;37.588;-122.048;2023-02-15T15:55:14;11.60;49.90
49222;DHT22;35047;37.588;-122.048;2023-02-15T15:57:45;11.70;48.50
49222;DHT22;35047;37.588;-122.048;2023-02-15T16:03:02;11.90;49.10
49222;DHT22;35047;37.588;-122.048;2023-02-15T16:05:39;12.00;46.70
49222;DHT22;35047;37.588;-122.048;2023-02-15T16:08:05;12.00;47.60
49222;DHT22;35047;37.588;-122.048;2023-02-15T16:10:33;12.00;47.60
49222;DHT22;35047;37.588;-122.048;2023-02-15T16:13:02;12.20;46.70
49222;DHT22;35047;37.588;-122.048;2023-02-15T16:15:42;12.20;46.20
49222;DHT22;35047;37.588;-122.048;2023-02-15T16:18:15;12.30;46.50
49222;DHT22;35047;37.588;-122.048;2023-02-15T16:20:58;12.40;44.60
49222;DHT22;35047;37.588;-122.048;2023-02-15T16:29:17;12.60;45.60
49222;DHT22;35047;37.588;-122.048;2023-02-15T16:32:06;12.90;45.90
49222;DHT22;35047;37.588;-122.048;2023-02-15T16:34:59;13.00;44.80
49222;DHT22;35047;37.588;-122.048;2023-02-15T16:37:31;13.20;45.50
49222;DHT22;35047;37.588;-122.048;2023-02-15T16:39:58;13.30;44.60
49222;DHT22;35047;37.588;-122.048;2023-02-15T16:42:26;13.50;43.50
49222;DHT22;35047;37.588;-122.048;2023-02-15T16:45:11;13.50;44.10
49222;DHT22;35047;37.588;-122.048;2023-02-15T16:47:42;13.70;44.80
49222;DHT22;35047;37.588;-122.048;2023-02-15T16:50:24;13.80;45.50
49222;DHT22;35047;37.588;-122.048;2023-02-15T16:52:52;14.00;45.50
49222;DHT22;35047;37.588;-122.048;2023-02-15T16:55:24;14.10;44.10
49222;DHT22;35047;37.588;-122.048;2023-02-15T16:57:56;14.20;42.80
49222;DHT22;35047;37.588;-122.048;2023-02-15T17:00:36;14.30;42.60
49222;DHT22;35047;37.588;-122.048;2023-02-15T17:05:59;14.70;42.40
49222;DHT22;35047;37.588;-122.048;2023-02-15T17:08:28;14.90;42.70
49222;DHT22;35047;37.588;-122.048;2023-02-15T17:13:37;15.40;43.00
49222;DHT22;35047;37.588;-122.048;2023-02-15T17:18:44;15.90;39.60
49222;DHT22;35047;37.588;-122.048;2023-02-15T17:21:20;16.10;41.70
49222;DHT22;35047;37.588;-122.048;2023-02-15T17:23:52;16.50;40.50
49222;DHT22;35047;37.588;-122.048;2023-02-15T17:26:35;16.80;40.60
49222;DHT22;35047;37.588;-122.048;2023-02-15T17:31:51;17.10;40.20
49222;DHT22;35047;37.588;-122.048;2023-02-15T17:40:26;18.20;39.00
49222;DHT22;35047;37.588;-122.048;2023-02-15T17:42:54;18.60;36.60
49222;DHT22;35047;37.588;-122.048;2023-02-15T17:45:22;18.70;37.90
49222;DHT22;35047;37.588;-122.048;2023-02-15T17:47:51;18.80;38.00
49222;DHT22;35047;37.588;-122.048;2023-02-15T17:50:25;19.00;36.30
49222;DHT22;35047;37.588;-122.048;2023-02-15T17:52:53;19.00;36.60
49222;DHT22;35047;37.588;-122.048;2023-02-15T17:55:23;19.10;37.60
49222;DHT22;35047;37.588;-122.048;2023-02-15T17:58:11;19.20;36.80
49222;DHT22;35047;37.588;-122.048;2023-02-15T18:00:42;19.20;36.30
49222;DHT22;35047;37.588;-122.048;2023-02-15T18:06:22;19.30;35.90
49222;DHT22;35047;37.588;-122.048;2023-02-15T18:09:11;19.30;34.30
49222;DHT22;35047;37.588;-122.048;2023-02-15T18:11:56;19.30;36.10
49222;DHT22;35047;37.588;-122.048;2023-02-15T18:14:23;19.40;36.90
49222;DHT22;35047;37.588;-122.048;2023-02-15T18:16:51;19.50;35.80
49222;DHT22;35047;37.588;-122.048;2023-02-15T18:21:47;19.70;37.10
49222;DHT22;35047;37.588;-122.048;2023-02-15T18:24:25;19.90;37.10
49222;DHT22;35047;37.588;-122.048;2023-02-15T18:26:54;20.00;36.40
49222;DHT22;35047;37.588;-122.048;2023-02-15T18:29:21;20.20;36.20
49222;DHT22;35047;37.588;-122.048;2023-02-15T18:31:52;20.30;34.70
49222;DHT22;35047;37.588;-122.048;2023-02-15T18:34:34;20.10;34.50